Terminal Aerodrome Forecast
Issued by NWS Charleston, WV

Current Version | Previous Version | Graphics & Text | Print | Product List | Glossary On
Versions: 1 2 3 4 5 6 7 8 9 10 11 12 13 14 15 16 17 18 19 20 21 22 23 24 25 26 27 28
000
FTUS41 KRLX 190800 AAA
TAFCRW
TAF AMD
KCRW 190830Z 1908/2006 31005KT P6SM BKN015 OVC040
     FM191200 30004KT 6SM BR SCT010
     FM192000 27004KT P6SM FEW025
     FM192300 00000KT P6SM SKC=

USA.gov is the U.S. government's official web portal to all federal, state and local government web resources and services.